createdAt,value
2018-11-14T21:20:02.894Z,18.40
2018-11-14T21:22:31.844Z,18.47
2018-11-14T21:25:01.641Z,19.60
2018-11-14T21:27:30.683Z,18.73
2018-11-14T21:29:59.672Z,19.53
2018-11-14T21:32:28.772Z,20.30
2018-11-14T21:34:57.594Z,20.23
2018-11-14T21:37:26.665Z,19.47
2018-11-14T21:39:55.430Z,20.20
2018-11-14T21:42:26.916Z,20.37
2018-11-14T21:44:55.649Z,20.20
2018-11-14T21:54:51.638Z,22.93
2018-11-14T21:57:20.210Z,22.50
2018-11-14T21:59:50.220Z,22.87
2018-11-14T22:02:19.875Z,23.57
2018-11-14T22:04:49.926Z,24.90
2018-11-14T22:07:23.229Z,24.27
2018-11-14T22:09:58.349Z,26.37
2018-11-14T22:12:27.408Z,26.20
2018-11-14T22:14:58.338Z,28.70
2018-11-14T22:17:30.196Z,27.97
2018-11-14T22:19:58.976Z,27.53
2018-11-14T22:22:27.899Z,28.03
2018-11-14T22:25:17.184Z,28.83
2018-11-14T22:27:57.992Z,29.73
2018-11-14T22:30:35.430Z,28.53
2018-11-14T22:33:08.039Z,30.53
2018-11-14T22:35:41.709Z,31.40
2018-11-14T22:38:12.671Z,31.67
2018-11-14T22:40:55.333Z,32.07
2018-11-14T22:43:28.972Z,31.30
2018-11-14T22:46:27.667Z,31.60
2018-11-14T22:48:57.660Z,31.40
2018-11-14T22:51:26.916Z,30.03
2018-11-14T22:53:55.404Z,30.60
2018-11-14T22:56:24.018Z,56.63
2018-11-14T22:58:52.622Z,89.27
2018-11-14T23:01:30.239Z,82.23
2018-11-14T23:04:11.994Z,80.57
2018-11-14T23:06:41.596Z,77.77
2018-11-14T23:09:13.301Z,75.33
2018-11-14T23:11:43.793Z,72.23
2018-11-14T23:14:14.179Z,68.97
2018-11-14T23:16:44.531Z,70.83
2018-11-14T23:19:16.153Z,67.50
2018-11-14T23:21:48.930Z,67.47
2018-11-14T23:24:18.822Z,65.50
2018-11-14T23:26:48.127Z,65.13
2018-11-14T23:29:18.151Z,65.50
2018-11-14T23:31:46.703Z,63.93
2018-11-14T23:34:15.213Z,62.80
2018-11-14T23:36:43.707Z,62.53
2018-11-14T23:39:13.860Z,60.53
2018-11-14T23:41:42.452Z,60.33
2018-11-14T23:44:11.127Z,60.17
2018-11-14T23:46:39.578Z,59.47
2018-11-14T23:49:08.093Z,58.57
2018-11-14T23:51:36.649Z,58.93
2018-11-14T23:54:05.665Z,57.10
2018-11-14T23:56:38.521Z,56.27
2018-11-14T23:59:07.076Z,57.33
